sensor_id;sensor_type;location;lat;lon;timestamp;temperature;humidity
12115;DHT22;6121;49.810;6.418;2024-02-26T00:00:46;8.40;99.90
12115;DHT22;6121;49.810;6.418;2024-02-26T00:05:38;8.40;99.90
12115;DHT22;6121;49.810;6.418;2024-02-26T00:08:05;8.30;99.90
12115;DHT22;6121;49.810;6.418;2024-02-26T00:10:31;8.30;99.90
12115;DHT22;6121;49.810;6.418;2024-02-26T00:12:56;8.40;99.90
12115;DHT22;6121;49.810;6.418;2024-02-26T00:15:22;8.30;99.90
12115;DHT22;6121;49.810;6.418;2024-02-26T00:17:48;8.40;99.90
12115;DHT22;6121;49.810;6.418;2024-02-26T00:20:16;8.40;99.90
12115;DHT22;6121;49.810;6.418;2024-02-26T00:22:42;8.50;99.90
12115;DHT22;6121;49.810;6.418;2024-02-26T00:25:08;8.40;99.90
12115;DHT22;6121;49.810;6.418;2024-02-26T00:27:36;8.30;99.90
12115;DHT22;6121;49.810;6.418;2024-02-26T00:30:05;8.40;99.90
12115;DHT22;6121;49.810;6.418;2024-02-26T00:34:58;8.40;99.90
12115;DHT22;6121;49.810;6.418;2024-02-26T00:39:50;8.20;99.90
12115;DHT22;6121;49.810;6.418;2024-02-26T00:42:16;8.20;99.90
12115;DHT22;6121;49.810;6.418;2024-02-26T00:44:42;8.20;99.90
12115;DHT22;6121;49.810;6.418;2024-02-26T00:47:08;8.20;99.90
12115;DHT22;6121;49.810;6.418;2024-02-26T00:49:34;8.40;99.90
12115;DHT22;6121;49.810;6.418;2024-02-26T00:52:00;8.10;99.90
12115;DHT22;6121;49.810;6.418;2024-02-26T00:54:26;8.10;99.90
12115;DHT22;6121;49.810;6.418;2024-02-26T00:56:52;8.10;99.90
12115;DHT22;6121;49.810;6.418;2024-02-26T00:59:17;8.00;99.90
12115;DHT22;6121;49.810;6.418;2024-02-26T01:01:43;8.00;99.90
12115;DHT22;6121;49.810;6.418;2024-02-26T01:04:09;7.90;99.90
12115;DHT22;6121;49.810;6.418;2024-02-26T01:06:35;8.00;99.90
12115;DHT22;6121;49.810;6.418;2024-02-26T01:11:30;7.80;99.90
12115;DHT22;6121;49.810;6.418;2024-02-26T01:13:56;7.90;99.90
12115;DHT22;6121;49.810;6.418;2024-02-26T01:16:25;7.80;99.90
12115;DHT22;6121;49.810;6.418;2024-02-26T01:18:51;7.70;99.90
12115;DHT22;6121;49.810;6.418;2024-02-26T01:23:43;7.70;99.90
12115;DHT22;6121;49.810;6.418;2024-02-26T01:28:39;7.70;99.90
12115;DHT22;6121;49.810;6.418;2024-02-26T01:31:09;7.70;99.90
12115;DHT22;6121;49.810;6.418;2024-02-26T01:33:36;7.60;99.90
12115;DHT22;6121;49.810;6.418;2024-02-26T01:36:02;8.30;99.90
12115;DHT22;6121;49.810;6.418;2024-02-26T01:38:28;7.40;99.90
12115;DHT22;6121;49.810;6.418;2024-02-26T01:40:54;7.50;99.90
12115;DHT22;6121;49.810;6.418;2024-02-26T01:43:23;7.50;99.90
12115;DHT22;6121;49.810;6.418;2024-02-26T01:45:49;7.50;99.90
12115;DHT22;6121;49.810;6.418;2024-02-26T01:48:15;7.50;99.90
12115;DHT22;6121;49.810;6.418;2024-02-26T01:50:41;7.50;99.90
12115;DHT22;6121;49.810;6.418;2024-02-26T01:55:33;7.40;99.90
12115;DHT22;6121;49.810;6.418;2024-02-26T01:57:59;7.40;99.90
12115;DHT22;6121;49.810;6.418;2024-02-26T02:00:26;7.30;99.90
12115;DHT22;6121;49.810;6.418;2024-02-26T02:02:52;7.30;99.90
12115;DHT22;6121;49.810;6.418;2024-02-26T02:05:20;7.30;99.90
12115;DHT22;6121;49.810;6.418;2024-02-26T02:07:46;7.40;99.90
12115;DHT22;6121;49.810;6.418;2024-02-26T02:10:18;7.30;99.90
12115;DHT22;6121;49.810;6.418;2024-02-26T02:12:48;7.30;99.90
12115;DHT22;6121;49.810;6.418;2024-02-26T02:15:14;7.20;99.90
12115;DHT22;6121;49.810;6.418;2024-02-26T02:17:40;7.30;99.90
12115;DHT22;6121;49.810;6.418;2024-02-26T02:22:36;7.20;99.90
12115;DHT22;6121;49.810;6.418;2024-02-26T02:25:02;7.20;99.90
12115;DHT22;6121;49.810;6.418;2024-02-26T02:27:29;7.20;99.90
12115;DHT22;6121;49.810;6.418;2024-02-26T02:29:55;7.10;99.90
12115;DHT22;6121;49.810;6.418;2024-02-26T02:32:21;7.10;99.90
12115;DHT22;6121;49.810;6.418;2024-02-26T02:34:48;7.20;99.90
12115;DHT22;6121;49.810;6.418;2024-02-26T02:37:14;7.40;99.90
12115;DHT22;6121;49.810;6.418;2024-02-26T02:39:40;7.20;99.90
12115;DHT22;6121;49.810;6.418;2024-02-26T02:42:07;7.20;99.90
12115;DHT22;6121;49.810;6.418;2024-02-26T02:44:33;7.20;99.90
12115;DHT22;6121;49.810;6.418;2024-02-26T02:46:59;7.20;99.90
12115;DHT22;6121;49.810;6.418;2024-02-26T02:49:25;7.20;99.90
12115;DHT22;6121;49.810;6.418;2024-02-26T02:51:51;7.00;99.90
12115;DHT22;6121;49.810;6.418;2024-02-26T02:54:20;7.30;99.90
12115;DHT22;6121;49.810;6.418;2024-02-26T02:56:46;7.20;99.90
12115;DHT22;6121;49.810;6.418;2024-02-26T02:59:11;6.90;99.90
12115;DHT22;6121;49.810;6.418;2024-02-26T03:01:37;6.90;99.90
12115;DHT22;6121;49.810;6.418;2024-02-26T03:04:03;7.00;99.90
12115;DHT22;6121;49.810;6.418;2024-02-26T03:06:29;7.00;99.90
12115;DHT22;6121;49.810;6.418;2024-02-26T03:08:55;7.00;99.90
12115;DHT22;6121;49.810;6.418;2024-02-26T03:11:21;7.00;99.90
12115;DHT22;6121;49.810;6.418;2024-02-26T03:16:13;6.90;99.90
12115;DHT22;6121;49.810;6.418;2024-02-26T03:23:33;7.00;99.90
12115;DHT22;6121;49.810;6.418;2024-02-26T03:26:06;7.00;99.90
12115;DHT22;6121;49.810;6.418;2024-02-26T03:31:02;7.00;99.90
12115;DHT22;6121;49.810;6.418;2024-02-26T03:33:27;7.00;99.90
12115;DHT22;6121;49.810;6.418;2024-02-26T03:35:53;6.90;99.90
12115;DHT22;6121;49.810;6.418;2024-02-26T03:38:19;6.90;99.90
12115;DHT22;6121;49.810;6.418;2024-02-26T03:40:45;6.90;99.90
12115;DHT22;6121;49.810;6.418;2024-02-26T03:43:11;6.80;99.90
12115;DHT22;6121;49.810;6.418;2024-02-26T03:45:38;7.00;99.90
12115;DHT22;6121;49.810;6.418;2024-02-26T03:50:30;6.90;99.90
12115;DHT22;6121;49.810;6.418;2024-02-26T03:52:56;6.90;99.90
12115;DHT22;6121;49.810;6.418;2024-02-26T03:55:23;7.00;99.90
12115;DHT22;6121;49.810;6.418;2024-02-26T03:57:51;7.00;99.90
12115;DHT22;6121;49.810;6.418;2024-02-26T04:00:17;6.90;99.90
12115;DHT22;6121;49.810;6.418;2024-02-26T04:02:43;7.00;99.90
12115;DHT22;6121;49.810;6.418;2024-02-26T04:05:10;6.90;99.90
12115;DHT22;6121;49.810;6.418;2024-02-26T04:07:37;6.90;99.90
12115;DHT22;6121;49.810;6.418;2024-02-26T04:10:03;7.20;99.90
12115;DHT22;6121;49.810;6.418;2024-02-26T04:12:31;6.90;99.90
12115;DHT22;6121;49.810;6.418;2024-02-26T04:14:57;6.90;99.90
12115;DHT22;6121;49.810;6.418;2024-02-26T04:19:50;6.70;99.90
12115;DHT22;6121;49.810;6.418;2024-02-26T04:22:16;6.90;99.90
12115;DHT22;6121;49.810;6.418;2024-02-26T04:27:08;6.90;99.90
12115;DHT22;6121;49.810;6.418;2024-02-26T04:29:34;7.00;99.90
12115;DHT22;6121;49.810;6.418;2024-02-26T04:32:00;7.00;99.90
12115;DHT22;6121;49.810;6.418;2024-02-26T04:34:26;7.00;99.90
12115;DHT22;6121;49.810;6.418;2024-02-26T04:39:18;6.90;99.90
12115;DHT22;6121;49.810;6.418;2024-02-26T04:41:44;7.00;99.90
12115;DHT22;6121;49.810;6.418;2024-02-26T04:44:10;7.00;99.90
12115;DHT22;6121;49.810;6.418;2024-02-26T04:46:35;7.00;99.90
12115;DHT22;6121;49.810;6.418;2024-02-26T04:49:01;7.10;99.90
12115;DHT22;6121;49.810;6.418;2024-02-26T04:51:27;7.00;99.90
12115;DHT22;6121;49.810;6.418;2024-02-26T04:53:53;7.10;99.90
12115;DHT22;6121;49.810;6.418;2024-02-26T04:56:21;7.10;99.90
12115;DHT22;6121;49.810;6.418;2024-02-26T04:58:47;7.10;99.90
12115;DHT22;6121;49.810;6.418;2024-02-26T05:01:13;7.10;99.90
12115;DHT22;6121;49.810;6.418;2024-02-26T05:06:05;7.10;99.90
12115;DHT22;6121;49.810;6.418;2024-02-26T05:08:31;7.20;99.90
12115;DHT22;6121;49.810;6.418;2024-02-26T05:10:59;7.20;99.90
12115;DHT22;6121;49.810;6.418;2024-02-26T05:13:26;7.60;99.90
12115;DHT22;6121;49.810;6.418;2024-02-26T05:15:51;7.20;99.90
12115;DHT22;6121;49.810;6.418;2024-02-26T05:18:18;7.20;99.90
12115;DHT22;6121;49.810;6.418;2024-02-26T05:20:44;7.10;99.90
12115;DHT22;6121;49.810;6.418;2024-02-26T05:28:02;7.20;99.90
12115;DHT22;6121;49.810;6.418;2024-02-26T05:30:28;7.20;99.90
12115;DHT22;6121;49.810;6.418;2024-02-26T05:32:54;7.50;99.90
12115;DHT22;6121;49.810;6.418;2024-02-26T05:35:20;7.30;99.90
12115;DHT22;6121;49.810;6.418;2024-02-26T05:37:46;7.50;99.90
12115;DHT22;6121;49.810;6.418;2024-02-26T05:40:12;7.30;99.90
12115;DHT22;6121;49.810;6.418;2024-02-26T05:42:38;7.40;99.90
12115;DHT22;6121;49.810;6.418;2024-02-26T05:50:04;7.30;99.90
12115;DHT22;6121;49.810;6.418;2024-02-26T05:52:30;7.30;99.90
12115;DHT22;6121;49.810;6.418;2024-02-26T05:54:57;7.60;99.90
12115;DHT22;6121;49.810;6.418;2024-02-26T05:57:23;7.10;99.90
12115;DHT22;6121;49.810;6.418;2024-02-26T05:59:49;7.50;99.90
12115;DHT22;6121;49.810;6.418;2024-02-26T06:02:14;7.30;99.90
12115;DHT22;6121;49.810;6.418;2024-02-26T06:04:40;7.30;99.90
12115;DHT22;6121;49.810;6.418;2024-02-26T06:07:06;7.30;99.90
12115;DHT22;6121;49.810;6.418;2024-02-26T06:09:32;7.50;99.90
12115;DHT22;6121;49.810;6.418;2024-02-26T06:11:58;7.30;99.90
12115;DHT22;6121;49.810;6.418;2024-02-26T06:16:50;7.30;99.90
12115;DHT22;6121;49.810;6.418;2024-02-26T06:19:16;7.30;99.90
12115;DHT22;6121;49.810;6.418;2024-02-26T06:21:42;7.20;99.90
12115;DHT22;6121;49.810;6.418;2024-02-26T06:24:08;7.20;99.90
12115;DHT22;6121;49.810;6.418;2024-02-26T06:26:34;7.20;99.90
12115;DHT22;6121;49.810;6.418;2024-02-26T06:29:00;7.20;99.90
12115;DHT22;6121;49.810;6.418;2024-02-26T06:31:26;7.30;99.90
12115;DHT22;6121;49.810;6.418;2024-02-26T06:33:53;7.30;99.90
12115;DHT22;6121;49.810;6.418;2024-02-26T06:36:19;7.70;99.90
12115;DHT22;6121;49.810;6.418;2024-02-26T06:43:38;7.40;99.90
12115;DHT22;6121;49.810;6.418;2024-02-26T06:48:30;7.40;99.90
12115;DHT22;6121;49.810;6.418;2024-02-26T06:50:56;7.40;99.90
12115;DHT22;6121;49.810;6.418;2024-02-26T06:55:48;7.40;99.90
12115;DHT22;6121;49.810;6.418;2024-02-26T07:03:08;7.40;99.90
12115;DHT22;6121;49.810;6.418;2024-02-26T07:08:00;7.40;99.90
12115;DHT22;6121;49.810;6.418;2024-02-26T07:10:26;7.40;99.90
12115;DHT22;6121;49.810;6.418;2024-02-26T07:17:44;7.40;99.90
12115;DHT22;6121;49.810;6.418;2024-02-26T07:20:13;7.60;99.90
12115;DHT22;6121;49.810;6.418;2024-02-26T07:22:40;7.40;99.90
12115;DHT22;6121;49.810;6.418;2024-02-26T07:25:08;7.40;99.90
12115;DHT22;6121;49.810;6.418;2024-02-26T07:30:01;7.30;99.90
12115;DHT22;6121;49.810;6.418;2024-02-26T07:32:26;7.40;99.90
12115;DHT22;6121;49.810;6.418;2024-02-26T07:34:52;7.40;99.90
12115;DHT22;6121;49.810;6.418;2024-02-26T07:37:18;7.40;99.90
12115;DHT22;6121;49.810;6.418;2024-02-26T07:42:10;7.50;99.90
12115;DHT22;6121;49.810;6.418;2024-02-26T07:44:36;7.40;99.90
12115;DHT22;6121;49.810;6.418;2024-02-26T07:47:02;7.30;99.90
12115;DHT22;6121;49.810;6.418;2024-02-26T07:49:29;7.40;99.90
12115;DHT22;6121;49.810;6.418;2024-02-26T07:51:55;7.50;99.90
12115;DHT22;6121;49.810;6.418;2024-02-26T07:54:23;7.80;99.90
12115;DHT22;6121;49.810;6.418;2024-02-26T07:56:49;7.40;99.90
12115;DHT22;6121;49.810;6.418;2024-02-26T07:59:15;7.30;99.90
12115;DHT22;6121;49.810;6.418;2024-02-26T08:01:41;7.50;99.90
12115;DHT22;6121;49.810;6.418;2024-02-26T08:04:07;7.40;99.90
12115;DHT22;6121;49.810;6.418;2024-02-26T08:06:33;7.30;99.90
12115;DHT22;6121;49.810;6.418;2024-02-26T08:08:59;7.40;99.90
12115;DHT22;6121;49.810;6.418;2024-02-26T08:11:24;7.40;99.90
12115;DHT22;6121;49.810;6.418;2024-02-26T08:13:50;7.40;99.90
12115;DHT22;6121;49.810;6.418;2024-02-26T08:16:16;7.40;99.90
12115;DHT22;6121;49.810;6.418;2024-02-26T08:18:42;7.40;99.90
12115;DHT22;6121;49.810;6.418;2024-02-26T08:21:08;7.40;99.90
12115;DHT22;6121;49.810;6.418;2024-02-26T08:23:34;7.50;99.90
12115;DHT22;6121;49.810;6.418;2024-02-26T08:26:00;7.50;99.90
12115;DHT22;6121;49.810;6.418;2024-02-26T08:28:26;7.60;99.90
12115;DHT22;6121;49.810;6.418;2024-02-26T08:33:18;7.50;99.90
12115;DHT22;6121;49.810;6.418;2024-02-26T08:38:10;7.60;99.90
12115;DHT22;6121;49.810;6.418;2024-02-26T08:40:37;7.70;99.90
12115;DHT22;6121;49.810;6.418;2024-02-26T08:43:03;7.70;99.90
12115;DHT22;6121;49.810;6.418;2024-02-26T08:45:28;7.60;99.90
12115;DHT22;6121;49.810;6.418;2024-02-26T08:47:54;7.60;99.90
12115;DHT22;6121;49.810;6.418;2024-02-26T08:50:20;7.70;99.90
12115;DHT22;6121;49.810;6.418;2024-02-26T08:52:46;7.60;99.90
12115;DHT22;6121;49.810;6.418;2024-02-26T08:55:16;7.70;99.90
12115;DHT22;6121;49.810;6.418;2024-02-26T08:57:42;7.80;99.90
12115;DHT22;6121;49.810;6.418;2024-02-26T09:02:34;7.80;99.90
12115;DHT22;6121;49.810;6.418;2024-02-26T09:05:00;7.80;99.90
12115;DHT22;6121;49.810;6.418;2024-02-26T09:07:26;7.90;99.90
12115;DHT22;6121;49.810;6.418;2024-02-26T09:12:18;7.90;99.90
12115;DHT22;6121;49.810;6.418;2024-02-26T09:14:45;8.00;99.90
12115;DHT22;6121;49.810;6.418;2024-02-26T09:19:37;8.00;99.90
12115;DHT22;6121;49.810;6.418;2024-02-26T09:22:03;8.00;99.90
12115;DHT22;6121;49.810;6.418;2024-02-26T09:24:29;8.10;99.90
12115;DHT22;6121;49.810;6.418;2024-02-26T09:26:55;8.10;99.90
12115;DHT22;6121;49.810;6.418;2024-02-26T09:29:21;7.90;99.90
12115;DHT22;6121;49.810;6.418;2024-02-26T09:31:49;8.30;99.90
12115;DHT22;6121;49.810;6.418;2024-02-26T09:36:41;8.10;99.90
12115;DHT22;6121;49.810;6.418;2024-02-26T09:41:37;8.20;99.90
12115;DHT22;6121;49.810;6.418;2024-02-26T09:44:04;8.30;99.90
12115;DHT22;6121;49.810;6.418;2024-02-26T09:46:31;8.30;99.90
12115;DHT22;6121;49.810;6.418;2024-02-26T09:48:57;8.40;99.90
12115;DHT22;6121;49.810;6.418;2024-02-26T09:51:23;8.40;99.90
12115;DHT22;6121;49.810;6.418;2024-02-26T09:53:54;8.30;99.90
12115;DHT22;6121;49.810;6.418;2024-02-26T09:58:49;8.50;99.90
12115;DHT22;6121;49.810;6.418;2024-02-26T10:01:20;8.60;99.90
12115;DHT22;6121;49.810;6.418;2024-02-26T10:03:52;8.60;99.90
12115;DHT22;6121;49.810;6.418;2024-02-26T10:06:18;8.60;99.90
12115;DHT22;6121;49.810;6.418;2024-02-26T10:08:44;8.80;99.90
12115;DHT22;6121;49.810;6.418;2024-02-26T10:13:37;9.00;99.90
12115;DHT22;6121;49.810;6.418;2024-02-26T10:21:22;9.10;99.90
12115;DHT22;6121;49.810;6.418;2024-02-26T10:26:16;9.00;99.90
12115;DHT22;6121;49.810;6.418;2024-02-26T10:28:43;9.10;99.90
12115;DHT22;6121;49.810;6.418;2024-02-26T10:31:10;9.20;99.90
12115;DHT22;6121;49.810;6.418;2024-02-26T10:33:37;9.30;99.90
12115;DHT22;6121;49.810;6.418;2024-02-26T10:36:07;9.70;99.90
12115;DHT22;6121;49.810;6.418;2024-02-26T10:43:30;9.50;99.90
12115;DHT22;6121;49.810;6.418;2024-02-26T10:48:22;9.60;99.90
12115;DHT22;6121;49.810;6.418;2024-02-26T10:55:58;9.70;99.90
12115;DHT22;6121;49.810;6.418;2024-02-26T10:58:27;9.70;99.90
12115;DHT22;6121;49.810;6.418;2024-02-26T11:00:56;10.00;99.90
12115;DHT22;6121;49.810;6.418;2024-02-26T11:03:23;10.10;99.90
12115;DHT22;6121;49.810;6.418;2024-02-26T11:05:50;10.10;99.90
12115;DHT22;6121;49.810;6.418;2024-02-26T11:08:18;10.70;99.90
12115;DHT22;6121;49.810;6.418;2024-02-26T11:10:47;10.50;99.90
12115;DHT22;6121;49.810;6.418;2024-02-26T11:13:15;10.50;99.90
12115;DHT22;6121;49.810;6.418;2024-02-26T11:15:46;11.10;99.90
12115;DHT22;6121;49.810;6.418;2024-02-26T11:20:41;10.70;99.90
12115;DHT22;6121;49.810;6.418;2024-02-26T11:23:08;10.70;99.90
12115;DHT22;6121;49.810;6.418;2024-02-26T11:28:09;10.60;99.90
12115;DHT22;6121;49.810;6.418;2024-02-26T11:33:07;10.40;99.90
12115;DHT22;6121;49.810;6.418;2024-02-26T11:35:35;10.30;99.90
12115;DHT22;6121;49.810;6.418;2024-02-26T11:38:01;10.40;99.90
12115;DHT22;6121;49.810;6.418;2024-02-26T11:40:28;10.50;99.90
12115;DHT22;6121;49.810;6.418;2024-02-26T11:42:54;10.60;99.90
12115;DHT22;6121;49.810;6.418;2024-02-26T11:48:15;10.70;99.90
12115;DHT22;6121;49.810;6.418;2024-02-26T12:01:05;10.80;99.90
12115;DHT22;6121;49.810;6.418;2024-02-26T12:03:31;10.80;99.90
12115;DHT22;6121;49.810;6.418;2024-02-26T12:05:57;10.70;99.90
12115;DHT22;6121;49.810;6.418;2024-02-26T12:08:23;10.80;99.90
12115;DHT22;6121;49.810;6.418;2024-02-26T12:10:51;10.90;99.90
12115;DHT22;6121;49.810;6.418;2024-02-26T12:13:29;10.70;99.90
12115;DHT22;6121;49.810;6.418;2024-02-26T12:15:57;10.50;99.90
12115;DHT22;6121;49.810;6.418;2024-02-26T12:18:24;10.60;99.90
12115;DHT22;6121;49.810;6.418;2024-02-26T12:21:03;10.70;99.90
12115;DHT22;6121;49.810;6.418;2024-02-26T12:23:30;10.80;99.90
12115;DHT22;6121;49.810;6.418;2024-02-26T12:25:59;11.00;99.90
12115;DHT22;6121;49.810;6.418;2024-02-26T12:28:29;11.10;99.90
12115;DHT22;6121;49.810;6.418;2024-02-26T12:30:55;11.10;99.90
12115;DHT22;6121;49.810;6.418;2024-02-26T12:33:22;11.10;99.90
12115;DHT22;6121;49.810;6.418;2024-02-26T12:38:15;11.30;99.90
12115;DHT22;6121;49.810;6.418;2024-02-26T12:40:41;11.40;99.90
12115;DHT22;6121;49.810;6.418;2024-02-26T12:43:08;11.50;99.90
12115;DHT22;6121;49.810;6.418;2024-02-26T12:45:42;11.60;99.90
12115;DHT22;6121;49.810;6.418;2024-02-26T12:48:12;11.60;99.90
12115;DHT22;6121;49.810;6.418;2024-02-26T12:50:38;11.80;99.90
12115;DHT22;6121;49.810;6.418;2024-02-26T12:53:04;11.80;99.90
12115;DHT22;6121;49.810;6.418;2024-02-26T12:55:31;11.70;99.90
12115;DHT22;6121;49.810;6.418;2024-02-26T12:58:00;11.70;99.90
12115;DHT22;6121;49.810;6.418;2024-02-26T13:02:55;11.70;99.90
12115;DHT22;6121;49.810;6.418;2024-02-26T13:07:48;11.60;99.90
12115;DHT22;6121;49.810;6.418;2024-02-26T13:10:14;11.60;99.90
12115;DHT22;6121;49.810;6.418;2024-02-26T13:12:50;11.60;99.90
12115;DHT22;6121;49.810;6.418;2024-02-26T13:15:17;11.50;99.90
12115;DHT22;6121;49.810;6.418;2024-02-26T13:17:44;11.50;99.90
12115;DHT22;6121;49.810;6.418;2024-02-26T13:20:11;11.50;99.90
12115;DHT22;6121;49.810;6.418;2024-02-26T13:25:04;11.50;99.90
12115;DHT22;6121;49.810;6.418;2024-02-26T13:27:33;11.60;99.90
12115;DHT22;6121;49.810;6.418;2024-02-26T13:30:10;11.60;99.90
12115;DHT22;6121;49.810;6.418;2024-02-26T13:32:40;11.60;99.90
12115;DHT22;6121;49.810;6.418;2024-02-26T13:35:11;11.60;99.90
12115;DHT22;6121;49.810;6.418;2024-02-26T13:37:38;11.60;99.90
12115;DHT22;6121;49.810;6.418;2024-02-26T13:42:36;11.50;99.90
12115;DHT22;6121;49.810;6.418;2024-02-26T13:47:29;11.40;99.90
12115;DHT22;6121;49.810;6.418;2024-02-26T13:49:54;11.60;99.90
12115;DHT22;6121;49.810;6.418;2024-02-26T13:52:22;11.20;99.90
12115;DHT22;6121;49.810;6.418;2024-02-26T13:54:48;11.10;99.90
12115;DHT22;6121;49.810;6.418;2024-02-26T13:59:40;11.00;99.90
12115;DHT22;6121;49.810;6.418;2024-02-26T14:04:36;11.10;99.90
12115;DHT22;6121;49.810;6.418;2024-02-26T14:07:02;11.10;99.90
12115;DHT22;6121;49.810;6.418;2024-02-26T14:09:29;11.10;99.90
12115;DHT22;6121;49.810;6.418;2024-02-26T14:11:55;11.20;99.90
12115;DHT22;6121;49.810;6.418;2024-02-26T14:14:20;11.10;99.90
12115;DHT22;6121;49.810;6.418;2024-02-26T14:16:46;11.10;99.90
12115;DHT22;6121;49.810;6.418;2024-02-26T14:19:12;11.40;99.90
12115;DHT22;6121;49.810;6.418;2024-02-26T14:21:38;11.10;99.90
12115;DHT22;6121;49.810;6.418;2024-02-26T14:24:05;11.30;99.90
12115;DHT22;6121;49.810;6.418;2024-02-26T14:28:57;11.10;99.90
12115;DHT22;6121;49.810;6.418;2024-02-26T14:33:51;11.10;99.90
12115;DHT22;6121;49.810;6.418;2024-02-26T14:36:21;11.10;99.90
12115;DHT22;6121;49.810;6.418;2024-02-26T14:38:47;11.10;99.90
12115;DHT22;6121;49.810;6.418;2024-02-26T14:41:14;11.20;99.90
12115;DHT22;6121;49.810;6.418;2024-02-26T14:43:39;11.20;99.90
12115;DHT22;6121;49.810;6.418;2024-02-26T14:46:05;11.20;99.90
12115;DHT22;6121;49.810;6.418;2024-02-26T14:50:58;11.00;99.90
12115;DHT22;6121;49.810;6.418;2024-02-26T14:53:24;11.00;99.90
12115;DHT22;6121;49.810;6.418;2024-02-26T15:03:09;10.80;99.90
12115;DHT22;6121;49.810;6.418;2024-02-26T15:05:35;10.80;99.90
12115;DHT22;6121;49.810;6.418;2024-02-26T15:08:01;10.80;99.90
12115;DHT22;6121;49.810;6.418;2024-02-26T15:10:28;11.00;99.90
12115;DHT22;6121;49.810;6.418;2024-02-26T15:12:56;10.90;99.90
12115;DHT22;6121;49.810;6.418;2024-02-26T15:15:22;11.00;99.90
12115;DHT22;6121;49.810;6.418;2024-02-26T15:17:49;10.80;99.90
12115;DHT22;6121;49.810;6.418;2024-02-26T15:20:15;10.90;99.90
12115;DHT22;6121;49.810;6.418;2024-02-26T15:22:41;10.70;99.90
12115;DHT22;6121;49.810;6.418;2024-02-26T15:25:08;10.80;99.90
12115;DHT22;6121;49.810;6.418;2024-02-26T15:34:54;10.70;99.90
12115;DHT22;6121;49.810;6.418;2024-02-26T15:37:20;10.60;99.90
12115;DHT22;6121;49.810;6.418;2024-02-26T15:39:46;10.60;99.90
12115;DHT22;6121;49.810;6.418;2024-02-26T15:42:14;10.60;99.90
12115;DHT22;6121;49.810;6.418;2024-02-26T15:47:07;10.50;99.90
12115;DHT22;6121;49.810;6.418;2024-02-26T15:49:33;10.50;99.90
12115;DHT22;6121;49.810;6.418;2024-02-26T15:54:26;10.40;99.90
12115;DHT22;6121;49.810;6.418;2024-02-26T16:04:13;10.50;99.90
12115;DHT22;6121;49.810;6.418;2024-02-26T16:09:13;10.40;99.90
12115;DHT22;6121;49.810;6.418;2024-02-26T16:11:40;10.50;99.90
12115;DHT22;6121;49.810;6.418;2024-02-26T16:14:17;10.60;99.90
12115;DHT22;6121;49.810;6.418;2024-02-26T16:19:28;10.50;99.90
12115;DHT22;6121;49.810;6.418;2024-02-26T16:21:54;10.40;99.90
12115;DHT22;6121;49.810;6.418;2024-02-26T16:24:20;10.40;99.90
12115;DHT22;6121;49.810;6.418;2024-02-26T16:29:12;10.40;99.90
12115;DHT22;6121;49.810;6.418;2024-02-26T16:31:39;10.40;99.90
12115;DHT22;6121;49.810;6.418;2024-02-26T16:34:04;10.20;99.90
12115;DHT22;6121;49.810;6.418;2024-02-26T16:38:57;10.30;99.90
12115;DHT22;6121;49.810;6.418;2024-02-26T16:48:44;10.20;99.90
12115;DHT22;6121;49.810;6.418;2024-02-26T16:51:10;10.10;99.90
12115;DHT22;6121;49.810;6.418;2024-02-26T16:53:35;10.10;99.90
12115;DHT22;6121;49.810;6.418;2024-02-26T16:56:01;10.40;99.90
12115;DHT22;6121;49.810;6.418;2024-02-26T16:58:28;10.10;99.90
12115;DHT22;6121;49.810;6.418;2024-02-26T17:00:53;10.00;99.90
12115;DHT22;6121;49.810;6.418;2024-02-26T17:05:46;10.00;99.90
12115;DHT22;6121;49.810;6.418;2024-02-26T17:08:12;9.90;99.90
12115;DHT22;6121;49.810;6.418;2024-02-26T17:10:39;10.10;99.90
12115;DHT22;6121;49.810;6.418;2024-02-26T17:13:05;9.90;99.90
12115;DHT22;6121;49.810;6.418;2024-02-26T17:15:31;10.40;99.90
12115;DHT22;6121;49.810;6.418;2024-02-26T17:22:51;9.90;99.90
12115;DHT22;6121;49.810;6.418;2024-02-26T17:27:44;9.80;99.90
12115;DHT22;6121;49.810;6.418;2024-02-26T17:30:10;9.80;99.90
12115;DHT22;6121;49.810;6.418;2024-02-26T17:37:29;9.60;99.90
12115;DHT22;6121;49.810;6.418;2024-02-26T17:39:55;9.70;99.90
12115;DHT22;6121;49.810;6.418;2024-02-26T17:42:21;9.60;99.90
12115;DHT22;6121;49.810;6.418;2024-02-26T17:44:47;9.70;99.90
12115;DHT22;6121;49.810;6.418;2024-02-26T17:47:13;9.50;99.90
12115;DHT22;6121;49.810;6.418;2024-02-26T17:49:39;9.50;99.90
12115;DHT22;6121;49.810;6.418;2024-02-26T17:52:05;9.70;99.90
12115;DHT22;6121;49.810;6.418;2024-02-26T17:54:32;10.10;99.90
12115;DHT22;6121;49.810;6.418;2024-02-26T17:56:58;9.50;99.90
12115;DHT22;6121;49.810;6.418;2024-02-26T17:59:24;9.40;99.90
12115;DHT22;6121;49.810;6.418;2024-02-26T18:09:11;9.50;99.90
12115;DHT22;6121;49.810;6.418;2024-02-26T18:11:47;9.40;99.90
12115;DHT22;6121;49.810;6.418;2024-02-26T18:14:13;9.40;99.90
12115;DHT22;6121;49.810;6.418;2024-02-26T18:21:31;9.40;99.90
12115;DHT22;6121;49.810;6.418;2024-02-26T18:23:57;9.30;99.90
12115;DHT22;6121;49.810;6.418;2024-02-26T18:26:23;9.30;99.90
12115;DHT22;6121;49.810;6.418;2024-02-26T18:28:49;9.30;99.90
12115;DHT22;6121;49.810;6.418;2024-02-26T18:31:17;9.20;99.90
12115;DHT22;6121;49.810;6.418;2024-02-26T18:33:44;9.00;99.90
12115;DHT22;6121;49.810;6.418;2024-02-26T18:36:10;9.50;99.90
12115;DHT22;6121;49.810;6.418;2024-02-26T18:38:36;9.10;99.90
12115;DHT22;6121;49.810;6.418;2024-02-26T18:41:02;9.30;99.90
12115;DHT22;6121;49.810;6.418;2024-02-26T18:43:29;9.20;99.90
12115;DHT22;6121;49.810;6.418;2024-02-26T18:48:24;9.20;99.90
12115;DHT22;6121;49.810;6.418;2024-02-26T18:53:17;9.20;99.90
12115;DHT22;6121;49.810;6.418;2024-02-26T18:55:45;9.10;99.90
12115;DHT22;6121;49.810;6.418;2024-02-26T18:58:11;9.10;99.90
12115;DHT22;6121;49.810;6.418;2024-02-26T19:00:36;9.20;99.90
12115;DHT22;6121;49.810;6.418;2024-02-26T19:03:03;9.00;99.90
12115;DHT22;6121;49.810;6.418;2024-02-26T19:05:30;8.90;99.90
12115;DHT22;6121;49.810;6.418;2024-02-26T19:07:58;9.00;99.90
12115;DHT22;6121;49.810;6.418;2024-02-26T19:10:27;9.20;99.90
12115;DHT22;6121;49.810;6.418;2024-02-26T19:12:53;9.00;99.90
12115;DHT22;6121;49.810;6.418;2024-02-26T19:15:19;9.30;99.90
12115;DHT22;6121;49.810;6.418;2024-02-26T19:17:49;9.00;99.90
12115;DHT22;6121;49.810;6.418;2024-02-26T19:20:16;8.80;99.90
12115;DHT22;6121;49.810;6.418;2024-02-26T19:22:46;8.90;99.90
12115;DHT22;6121;49.810;6.418;2024-02-26T19:25:13;9.00;99.90
12115;DHT22;6121;49.810;6.418;2024-02-26T19:27:40;8.90;99.90
12115;DHT22;6121;49.810;6.418;2024-02-26T19:30:07;8.90;99.90
12115;DHT22;6121;49.810;6.418;2024-02-26T19:32:33;9.00;99.90
12115;DHT22;6121;49.810;6.418;2024-02-26T19:37:25;8.90;99.90
12115;DHT22;6121;49.810;6.418;2024-02-26T19:39:51;8.80;99.90
12115;DHT22;6121;49.810;6.418;2024-02-26T19:44:46;8.80;99.90
12115;DHT22;6121;49.810;6.418;2024-02-26T19:47:12;8.90;99.90
12115;DHT22;6121;49.810;6.418;2024-02-26T19:49:38;8.80;99.90
12115;DHT22;6121;49.810;6.418;2024-02-26T19:54:31;8.90;99.90
12115;DHT22;6121;49.810;6.418;2024-02-26T19:56:57;8.70;99.90
12115;DHT22;6121;49.810;6.418;2024-02-26T19:59:23;8.80;99.90
12115;DHT22;6121;49.810;6.418;2024-02-26T20:01:49;8.90;99.90
12115;DHT22;6121;49.810;6.418;2024-02-26T20:04:15;8.50;99.90
12115;DHT22;6121;49.810;6.418;2024-02-26T20:09:08;8.80;99.90